LFLW 301030Z AUTO 01004KT 310V100 9999 ////// 22/09 Q1017

ElémentsDécodage
LFLW Station météo située sur l'aérodrome de AURILLAC
301030Z émis le 30 du mois à 10h30 UTC
AUTO Bulletin édité par un automate
01004KT vent du 010°, 04 noeuds
310V100 vent de direction variable entre 310° et 100°
9999 visibilité horizontale supérieure à 10 Km
////// nébulosité (type et hauteur) non disponible
 type de nuage non observable
22/09 température 22°C, point de rosée 09°C
 soit une humidité relative de 43%
Q1017 la pression au niveau de la mer (QNH) est de 1017 hPa